Time;durP1;ratioP1;P1;durP2;ratioP2;P2;SDS_P1;SDS_P2;PMS_P1;PMS_P2;Temp;Humidity;BMP_temperature;BMP_pressure;BME280_temperature;BME280_humidity;BME280_pressure;Samples;Min_cycle;Max_cycle;Signal;HPM_P1;HPM_P2
2022/01/07 00:00:40;;;;;;;8.68;3.53;;;4.00;99.90;;;;;;5041265;28;20911;-78
2022/01/07 00:03:06;;;;;;;12.63;4.00;;;3.90;99.90;;;;;;5061303;28;20516;-80
2022/01/07 00:05:32;;;;;;;7.50;3.55;;;3.90;99.90;;;;;;5061980;28;20051;-78
2022/01/07 00:07:57;;;;;;;8.65;4.15;;;3.90;99.90;;;;;;5062545;28;20493;-78
2022/01/07 00:10:23;;;;;;;6.18;3.72;;;3.90;99.90;;;;;;5031005;28;20063;-79
2022/01/07 00:12:50;;;;;;;9.30;3.63;;;3.90;99.90;;;;;;5030067;28;20063;-79
2022/01/07 00:15:17;;;;;;;9.38;4.75;;;3.80;99.90;;;;;;5046314;28;20404;-78
2022/01/07 00:17:44;;;;;;;6.30;3.65;;;4.00;99.90;;;;;;5031812;28;20044;-78
2022/01/07 00:20:11;;;;;;;10.20;4.30;;;3.80;99.90;;;;;;5031377;28;20498;-78
2022/01/07 00:22:39;;;;;;;9.45;3.97;;;3.80;99.90;;;;;;5076993;28;20045;-78
2022/01/07 00:25:06;;;;;;;9.10;4.75;;;3.80;99.90;;;;;;5058810;28;20094;-80
2022/01/07 00:27:32;;;;;;;6.63;3.72;;;3.80;99.90;;;;;;5046361;28;20051;-78
2022/01/07 00:29:57;;;;;;;9.00;4.20;;;3.80;99.90;;;;;;5046438;28;20053;-79
2022/01/07 00:32:23;;;;;;;6.82;3.95;;;4.20;99.90;;;;;;5028425;28;20048;-78
2022/01/07 00:34:49;;;;;;;8.95;4.30;;;3.70;99.90;;;;;;5024096;28;20040;-78
2022/01/07 00:37:15;;;;;;;7.47;3.97;;;3.70;99.90;;;;;;5062584;28;20131;-78
2022/01/07 00:39:40;;;;;;;8.55;4.30;;;3.70;99.90;;;;;;5047689;28;20068;-78
2022/01/07 00:42:06;;;;;;;8.52;4.15;;;4.60;99.90;;;;;;5031154;28;20106;-79
2022/01/07 00:44:32;;;;;;;8.80;4.43;;;3.70;99.90;;;;;;5064338;28;20048;-79
2022/01/07 00:46:58;;;;;;;8.85;4.43;;;3.70;99.90;;;;;;5027569;28;20040;-78
2022/01/07 00:49:24;;;;;;;10.07;4.85;;;4.90;99.90;;;;;;5047297;28;20075;-78
2022/01/07 00:51:50;;;;;;;8.52;4.85;;;4.30;99.90;;;;;;5032035;28;20044;-78
2022/01/07 00:54:17;;;;;;;6.95;4.30;;;3.80;99.90;;;;;;5061147;28;20056;-78
2022/01/07 00:56:43;;;;;;;10.13;4.70;;;3.70;99.90;;;;;;5057596;28;20063;-78
2022/01/07 00:59:09;;;;;;;8.93;4.38;;;3.70;99.90;;;;;;5039615;28;20052;-80
2022/01/07 01:01:35;;;;;;;11.80;5.03;;;3.60;99.90;;;;;;5031246;28;20055;-79
2022/01/07 01:04:02;;;;;;;8.68;5.10;;;3.60;99.90;;;;;;5045243;28;20052;-78
2022/01/07 01:06:28;;;;;;;7.20;5.10;;;3.80;99.90;;;;;;5059620;28;20799;-78
2022/01/07 01:08:53;;;;;;;11.18;5.20;;;3.60;99.90;;;;;;5063478;28;20040;-78
2022/01/07 01:11:19;;;;;;;8.05;5.45;;;4.20;99.90;;;;;;5030993;28;20094;-78
2022/01/07 01:13:45;;;;;;;7.97;4.90;;;4.30;99.90;;;;;;5045577;28;20045;-78
2022/01/07 01:16:10;;;;;;;10.43;5.60;;;3.70;99.90;;;;;;5038585;28;20048;-79
2022/01/07 01:18:36;;;;;;;11.50;5.57;;;3.60;99.90;;;;;;5049086;28;20061;-78
2022/01/07 01:21:02;;;;;;;9.60;5.20;;;3.60;99.90;;;;;;5061252;28;20036;-78
2022/01/07 01:23:28;;;;;;;8.70;5.78;;;3.60;99.90;;;;;;5061532;28;20040;-78
2022/01/07 01:25:54;;;;;;;10.05;6.00;;;3.90;99.90;;;;;;5047880;28;20041;-78
2022/01/07 01:28:20;;;;;;;8.00;6.30;;;4.10;99.90;;;;;;5031253;28;22164;-78
2022/01/07 01:30:46;;;;;;;9.18;6.13;;;3.70;99.90;;;;;;5047839;28;20096;-78
2022/01/07 01:33:12;;;;;;;10.15;7.18;;;4.20;99.90;;;;;;5044748;28;20040;-79
2022/01/07 01:35:41;;;;;;;12.02;6.75;;;3.60;99.90;;;;;;5045325;28;20134;-78
2022/01/07 01:38:07;;;;;;;10.20;7.30;;;4.80;99.90;;;;;;5029332;28;20056;-78
2022/01/07 01:40:33;;;;;;;10.05;7.07;;;3.50;99.90;;;;;;5031092;28;20048;-77
2022/01/07 01:43:01;;;;;;;9.85;6.68;;;3.80;99.90;;;;;;5047375;28;20464;-77
2022/01/07 01:45:27;;;;;;;8.30;6.43;;;3.90;99.90;;;;;;5047533;28;20124;-77
2022/01/07 01:47:54;;;;;;;10.98;6.30;;;4.10;99.90;;;;;;5059751;28;20041;-77
2022/01/07 01:50:20;;;;;;;8.80;5.93;;;3.50;99.90;;;;;;5046733;28;20091;-77
2022/01/07 01:52:49;;;;;;;6.97;5.63;;;4.80;99.90;;;;;;5045301;28;20389;-77
2022/01/07 01:55:17;;;;;;;8.63;6.40;;;3.50;99.90;;;;;;5062686;28;20048;-78
2022/01/07 01:57:44;;;;;;;8.93;7.15;;;3.40;99.90;;;;;;5061264;28;20051;-77
2022/01/07 02:00:10;;;;;;;11.73;7.13;;;3.40;99.90;;;;;;5047286;28;20049;-77
2022/01/07 02:02:36;;;;;;;7.97;5.88;;;3.40;99.90;;;;;;5044450;28;20049;-77
2022/01/07 02:05:03;;;;;;;9.60;6.55;;;4.10;99.90;;;;;;5044065;28;20044;-76
2022/01/07 02:07:31;;;;;;;9.02;6.57;;;3.40;99.90;;;;;;5012726;28;20123;-77
2022/01/07 02:09:57;;;;;;;9.38;6.45;;;3.40;99.90;;;;;;5029792;28;20045;-77
2022/01/07 02:12:23;;;;;;;10.15;6.90;;;3.40;99.90;;;;;;5045209;28;20384;-77
2022/01/07 02:14:55;;;;;;;10.23;7.07;;;3.40;99.90;;;;;;5046584;28;20797;-77
2022/01/07 02:17:23;;;;;;;10.65;7.88;;;3.70;99.90;;;;;;5041039;28;20755;-76
2022/01/07 02:19:49;;;;;;;9.30;7.03;;;3.50;99.90;;;;;;5055563;28;20078;-77
2022/01/07 02:22:17;;;;;;;12.27;7.85;;;3.40;99.90;;;;;;5060104;28;20444;-78
2022/01/07 02:24:48;;;;;;;10.95;7.97;;;3.40;99.90;;;;;;5045846;28;20059;-77
2022/01/07 02:27:14;;;;;;;11.60;8.10;;;3.40;99.90;;;;;;5044546;28;20713;-77
2022/01/07 02:29:44;;;;;;;12.38;8.75;;;3.40;99.90;;;;;;5033689;28;20060;-78
2022/01/07 02:32:10;;;;;;;11.77;7.15;;;3.40;99.90;;;;;;5060029;28;20124;-77
2022/01/07 02:34:35;;;;;;;13.50;8.50;;;3.50;99.90;;;;;;5050252;28;20148;-77
2022/01/07 02:37:01;;;;;;;12.00;7.60;;;4.60;99.90;;;;;;5065855;28;20131;-77
2022/01/07 02:39:28;;;;;;;9.40;7.40;;;3.50;99.90;;;;;;5047469;28;20040;-77
2022/01/07 02:41:54;;;;;;;12.65;7.75;;;3.70;99.90;;;;;;5064932;28;20036;-77
2022/01/07 02:44:19;;;;;;;10.90;7.45;;;3.50;99.90;;;;;;5034447;28;20545;-77
2022/01/07 02:46:45;;;;;;;13.75;8.98;;;3.50;99.90;;;;;;5065683;28;20041;-77
2022/01/07 02:49:13;;;;;;;11.60;8.23;;;3.50;99.90;;;;;;5034722;28;20058;-77
2022/01/07 02:51:39;;;;;;;11.52;7.97;;;4.30;99.90;;;;;;5060048;28;20044;-77
2022/01/07 02:54:06;;;;;;;12.38;8.13;;;5.00;99.90;;;;;;5040634;28;20466;-78
2022/01/07 02:56:32;;;;;;;15.45;8.85;;;3.50;99.90;;;;;;5048778;28;20878;-77
2022/01/07 02:58:58;;;;;;;11.50;7.80;;;3.50;99.90;;;;;;5046210;28;20071;-77
2022/01/07 03:01:24;;;;;;;10.75;7.85;;;4.60;99.90;;;;;;5063861;28;20036;-77
2022/01/07 03:03:49;;;;;;;17.05;8.52;;;3.70;99.90;;;;;;5026873;28;20044;-77
2022/01/07 03:06:15;;;;;;;10.65;8.32;;;3.70;99.90;;;;;;5065764;28;20067;-77
2022/01/07 03:08:45;;;;;;;13.02;8.57;;;3.50;99.90;;;;;;5047754;28;20125;-77
2022/01/07 03:11:10;;;;;;;17.45;9.02;;;3.50;99.90;;;;;;5049334;28;20052;-77
2022/01/07 03:13:36;;;;;;;14.20;9.38;;;3.50;99.90;;;;;;5047628;28;20059;-77
2022/01/07 03:16:02;;;;;;;16.90;9.65;;;3.30;99.90;;;;;;5050057;28;20045;-77
2022/01/07 03:18:27;;;;;;;12.88;8.68;;;3.60;99.90;;;;;;5050179;28;20425;-77
2022/01/07 03:20:53;;;;;;;12.38;9.02;;;3.70;99.90;;;;;;5043856;28;20064;-77
2022/01/07 03:23:19;;;;;;;9.65;7.82;;;3.60;99.90;;;;;;5018009;28;20143;-78
2022/01/07 03:25:44;;;;;;;11.52;9.05;;;3.60;99.90;;;;;;5066556;28;20045;-77
2022/01/07 03:28:10;;;;;;;14.10;8.85;;;3.60;99.90;;;;;;5017764;28;20060;-77
2022/01/07 03:30:36;;;;;;;13.75;9.27;;;3.70;99.90;;;;;;5031860;28;20080;-77
2022/01/07 03:33:03;;;;;;;10.88;8.52;;;3.60;99.90;;;;;;5064887;28;20091;-77
2022/01/07 03:35:29;;;;;;;14.80;8.98;;;5.00;99.90;;;;;;5066976;28;20040;-77
2022/01/07 03:37:54;;;;;;;10.90;8.43;;;3.70;99.90;;;;;;5051302;28;20126;-77
2022/01/07 03:40:21;;;;;;;12.65;9.57;;;3.90;99.90;;;;;;5033548;28;20087;-78
2022/01/07 03:42:48;;;;;;;11.77;9.45;;;3.70;99.90;;;;;;5063941;28;20048;-77
2022/01/07 03:45:14;;;;;;;10.80;8.35;;;3.70;99.90;;;;;;5050047;28;20106;-77
2022/01/07 03:47:41;;;;;;;13.98;9.50;;;3.70;99.90;;;;;;5065570;28;20083;-77
2022/01/07 03:50:08;;;;;;;13.18;9.38;;;3.90;99.90;;;;;;5067228;28;20048;-77
2022/01/07 03:52:35;;;;;;;13.73;9.55;;;3.70;99.90;;;;;;5049571;28;20040;-77
2022/01/07 03:55:02;;;;;;;11.73;9.43;;;3.70;99.90;;;;;;5059593;28;20428;-77
2022/01/07 03:57:27;;;;;;;13.45;9.13;;;3.80;99.90;;;;;;5066153;28;20522;-77
2022/01/07 03:59:53;;;;;;;12.43;9.57;;;3.70;99.90;;;;;;5051386;28;20131;-77
2022/01/07 04:02:19;;;;;;;15.20;10.35;;;4.30;99.90;;;;;;5032492;28;20041;-77
2022/01/07 04:04:45;;;;;;;14.25;9.57;;;3.80;99.90;;;;;;5024901;28;20048;-77
2022/01/07 04:07:11;;;;;;;14.77;10.75;;;4.30;99.90;;;;;;5066091;28;20119;-78
2022/01/07 04:09:37;;;;;;;13.95;10.43;;;3.80;99.90;;;;;;5050141;28;20846;-77
2022/01/07 04:12:03;;;;;;;16.02;10.38;;;3.80;99.90;;;;;;5047889;28;20142;-77
2022/01/07 04:14:29;;;;;;;17.35;10.27;;;3.80;99.90;;;;;;5049855;28;20079;-78
2022/01/07 04:16:55;;;;;;;12.65;10.15;;;3.80;99.90;;;;;;5035669;28;20103;-77
2022/01/07 04:19:22;;;;;;;14.75;11.45;;;5.10;99.90;;;;;;5069292;28;20044;-78
2022/01/07 04:21:49;;;;;;;16.48;11.02;;;4.10;99.90;;;;;;5052900;28;20055;-78
2022/01/07 04:24:15;;;;;;;17.67;11.27;;;4.60;99.90;;;;;;5050014;28;20093;-77
2022/01/07 04:26:42;;;;;;;17.60;11.77;;;4.00;99.90;;;;;;5052334;28;20043;-77
2022/01/07 04:29:08;;;;;;;15.02;11.35;;;3.90;99.90;;;;;;5068325;28;20040;-78
2022/01/07 04:31:34;;;;;;;15.52;11.38;;;3.90;99.90;;;;;;5051293;28;20058;-78
2022/01/07 04:33:59;;;;;;;17.00;11.43;;;4.80;99.90;;;;;;5052348;28;20138;-77
2022/01/07 04:36:25;;;;;;;15.55;11.15;;;3.90;99.90;;;;;;5043867;28;20730;-79
2022/01/07 04:38:51;;;;;;;19.40;10.98;;;3.90;99.90;;;;;;5052834;28;20044;-77
2022/01/07 04:41:17;;;;;;;16.02;11.50;;;3.90;99.90;;;;;;5053728;28;20105;-77
2022/01/07 04:43:43;;;;;;;15.15;11.20;;;3.90;99.90;;;;;;5066417;28;20042;-77
2022/01/07 04:46:09;;;;;;;17.70;11.73;;;3.90;99.90;;;;;;5052661;28;20123;-77
2022/01/07 04:48:35;;;;;;;15.43;11.25;;;3.90;99.90;;;;;;5052857;28;20066;-77
2022/01/07 04:51:00;;;;;;;17.73;12.00;;;4.10;99.90;;;;;;5052558;28;20050;-77
2022/01/07 04:53:27;;;;;;;16.55;11.88;;;3.90;99.90;;;;;;5041754;28;20050;-79
2022/01/07 04:55:53;;;;;;;17.27;12.15;;;3.90;99.90;;;;;;5061879;28;20776;-77
2022/01/07 04:58:19;;;;;;;16.33;11.77;;;3.90;99.90;;;;;;5053204;28;20040;-77
2022/01/07 05:00:46;;;;;;;16.20;11.70;;;3.90;99.90;;;;;;5044310;28;20048;-77
2022/01/07 05:03:13;;;;;;;16.77;11.65;;;4.20;99.90;;;;;;5067100;28;20123;-77
2022/01/07 05:05:39;;;;;;;14.85;12.18;;;4.10;99.90;;;;;;5052033;28;20048;-77
2022/01/07 05:08:05;;;;;;;15.73;12.45;;;3.90;99.90;;;;;;5036834;28;20155;-78
2022/01/07 05:10:32;;;;;;;19.05;12.35;;;4.40;99.90;;;;;;5029005;28;20059;-78
2022/01/07 05:12:57;;;;;;;19.02;12.85;;;4.40;99.90;;;;;;5035074;28;20493;-77
2022/01/07 05:15:23;;;;;;;16.75;11.70;;;4.00;99.90;;;;;;5051481;28;20055;-77
2022/01/07 05:17:49;;;;;;;15.45;11.45;;;4.00;99.90;;;;;;5067874;28;20060;-78
2022/01/07 05:20:17;;;;;;;18.70;13.45;;;4.00;99.90;;;;;;5052207;28;20044;-77
2022/01/07 05:22:43;;;;;;;17.17;13.00;;;5.00;99.90;;;;;;5050368;28;20048;-77
2022/01/07 05:25:11;;;;;;;21.58;14.70;;;4.10;99.90;;;;;;5068728;28;20105;-77
2022/01/07 05:27:37;;;;;;;22.60;14.18;;;4.10;99.90;;;;;;5035436;28;20375;-77
2022/01/07 05:30:04;;;;;;;17.90;14.00;;;4.10;99.90;;;;;;5044004;28;20467;-78
2022/01/07 05:32:30;;;;;;;17.13;12.93;;;4.10;99.90;;;;;;5051557;28;20051;-78
2022/01/07 05:34:56;;;;;;;17.15;13.68;;;4.20;99.90;;;;;;5068475;28;20059;-77
2022/01/07 05:37:22;;;;;;;19.48;13.85;;;4.20;99.90;;;;;;5067755;28;20048;-77
2022/01/07 05:39:47;;;;;;;22.60;13.85;;;4.20;99.90;;;;;;5066247;28;20052;-77
2022/01/07 05:42:13;;;;;;;18.83;13.60;;;4.20;99.90;;;;;;5051471;28;20152;-77
2022/01/07 05:44:39;;;;;;;18.60;13.52;;;4.10;99.90;;;;;;5065558;28;20115;-77
2022/01/07 05:47:05;;;;;;;17.63;13.00;;;5.00;99.90;;;;;;5050841;28;20072;-78
2022/01/07 05:49:31;;;;;;;14.77;12.00;;;4.20;99.90;;;;;;5052392;28;20050;-79
2022/01/07 05:51:57;;;;;;;24.38;14.75;;;4.20;99.90;;;;;;5066016;28;20057;-78
2022/01/07 05:54:23;;;;;;;16.40;12.63;;;4.20;99.90;;;;;;5019211;28;20146;-77
2022/01/07 05:56:49;;;;;;;16.83;12.35;;;4.20;99.90;;;;;;5061660;28;20572;-78
2022/01/07 05:59:14;;;;;;;21.10;14.48;;;4.70;99.90;;;;;;5052238;28;20101;-78
2022/01/07 06:01:40;;;;;;;18.42;13.93;;;4.20;99.90;;;;;;5061139;28;20044;-78
2022/01/07 06:04:06;;;;;;;18.88;14.20;;;4.30;99.90;;;;;;5031131;28;20134;-78
2022/01/07 06:06:31;;;;;;;19.33;13.52;;;4.50;99.90;;;;;;5071403;28;20611;-79
2022/01/07 06:08:57;;;;;;;18.35;13.35;;;5.00;99.90;;;;;;5055765;28;20044;-78
2022/01/07 06:11:23;;;;;;;18.23;12.10;;;4.50;99.90;;;;;;5055903;28;20067;-78
2022/01/07 06:13:48;;;;;;;13.90;12.05;;;4.30;99.90;;;;;;5052298;28;20143;-77
2022/01/07 06:16:14;;;;;;;18.65;12.73;;;4.80;99.90;;;;;;5039447;28;20063;-77
2022/01/07 06:18:51;;;;;;;19.40;12.52;;;4.30;99.90;;;;;;5048734;28;20084;-78
2022/01/07 06:21:17;;;;;;;17.58;12.40;;;4.30;99.90;;;;;;5051931;28;20044;-78
2022/01/07 06:23:43;;;;;;;17.08;11.80;;;4.90;99.90;;;;;;5050174;28;20044;-77
2022/01/07 06:26:09;;;;;;;17.42;12.07;;;4.30;99.90;;;;;;5044075;28;20051;-77
2022/01/07 06:28:34;;;;;;;18.20;12.02;;;4.20;99.90;;;;;;5068122;28;20058;-78
2022/01/07 06:31:00;;;;;;;21.75;12.82;;;4.20;99.90;;;;;;5028910;28;20033;-78
2022/01/07 06:33:25;;;;;;;18.02;13.13;;;4.20;99.90;;;;;;5066722;28;20133;-77
2022/01/07 06:35:51;;;;;;;21.33;13.20;;;5.10;99.90;;;;;;5044926;28;20048;-77
2022/01/07 06:38:17;;;;;;;18.70;13.35;;;4.40;99.90;;;;;;5035616;28;20630;-76
2022/01/07 06:40:42;;;;;;;20.27;13.40;;;4.50;99.90;;;;;;5051644;28;20059;-77
2022/01/07 06:43:08;;;;;;;17.35;13.05;;;5.20;99.90;;;;;;5042616;28;20398;-78
2022/01/07 06:45:34;;;;;;;16.05;12.40;;;4.20;99.90;;;;;;5043981;28;20036;-78
2022/01/07 06:48:00;;;;;;;17.95;13.35;;;4.20;99.90;;;;;;5067370;28;20094;-77
2022/01/07 06:50:25;;;;;;;17.92;12.85;;;5.10;99.90;;;;;;5034531;28;20103;-78
2022/01/07 06:52:51;;;;;;;17.85;12.60;;;4.20;99.90;;;;;;5032573;28;20048;-77
2022/01/07 06:55:18;;;;;;;17.55;12.73;;;5.40;99.90;;;;;;5018997;28;20040;-77
2022/01/07 06:57:43;;;;;;;19.00;12.52;;;4.20;99.90;;;;;;5066455;28;20053;-78
2022/01/07 07:00:10;;;;;;;18.42;13.02;;;4.10;99.90;;;;;;5051697;28;20058;-78
2022/01/07 07:02:36;;;;;;;16.13;11.05;;;4.10;99.90;;;;;;5041317;28;20080;-78
2022/01/07 07:05:02;;;;;;;18.17;11.70;;;4.70;99.90;;;;;;5034476;28;20114;-77
2022/01/07 07:07:28;;;;;;;15.43;10.75;;;4.10;99.90;;;;;;5041645;28;20044;-77
2022/01/07 07:09:53;;;;;;;21.63;12.07;;;5.20;99.90;;;;;;5033776;28;20459;-77
2022/01/07 07:12:19;;;;;;;18.08;10.95;;;4.80;99.90;;;;;;5049700;28;20133;-77
2022/01/07 07:14:45;;;;;;;19.58;11.30;;;4.00;99.90;;;;;;5049303;28;20131;-78
2022/01/07 07:17:12;;;;;;;17.05;11.00;;;4.00;99.90;;;;;;5046211;28;20471;-78
2022/01/07 07:19:38;;;;;;;17.40;11.25;;;4.00;99.90;;;;;;5069982;28;20401;-78
2022/01/07 07:22:04;;;;;;;18.30;11.27;;;4.00;99.90;;;;;;5052936;28;20032;-77
2022/01/07 07:24:30;;;;;;;17.55;10.95;;;4.00;99.90;;;;;;5070968;28;20105;-77
2022/01/07 07:26:57;;;;;;;17.17;11.20;;;4.00;99.90;;;;;;5053300;28;20101;-77
2022/01/07 07:29:23;;;;;;;17.02;10.82;;;5.30;99.90;;;;;;5054137;28;20833;-77
2022/01/07 07:31:51;;;;;;;19.42;11.70;;;4.30;99.90;;;;;;5067866;28;20054;-77
2022/01/07 07:34:43;;;;;;;16.25;10.38;;;4.00;99.90;;;;;;5068862;28;20493;-77
2022/01/07 07:37:13;;;;;;;16.80;9.05;;;4.20;99.90;;;;;;5069580;28;20105;-77
2022/01/07 07:39:39;;;;;;;13.60;5.10;;;4.00;99.90;;;;;;5053141;28;20485;-77
2022/01/07 07:42:05;;;;;;;12.88;3.60;;;5.10;99.90;;;;;;5050765;28;20505;-76
2022/01/07 07:44:31;;;;;;;9.13;2.95;;;4.00;99.90;;;;;;5051020;28;20097;-77
2022/01/07 07:46:57;;;;;;;14.52;2.67;;;4.90;99.90;;;;;;5049275;28;20235;-80
2022/01/07 07:49:29;;;;;;;14.95;2.95;;;4.30;99.90;;;;;;5070534;28;20075;-79
2022/01/07 07:51:55;;;;;;;10.43;2.78;;;5.40;99.90;;;;;;5052082;28;20062;-79
2022/01/07 07:54:21;;;;;;;13.48;2.72;;;4.50;99.90;;;;;;5037975;28;20051;-78
2022/01/07 07:56:47;;;;;;;17.25;3.00;;;4.50;99.90;;;;;;5033076;28;20394;-78
2022/01/07 07:59:13;;;;;;;8.98;2.40;;;4.80;99.90;;;;;;5034394;28;20044;-78
2022/01/07 08:01:39;;;;;;;14.45;2.53;;;4.80;99.90;;;;;;5053197;28;20139;-79
2022/01/07 08:04:05;;;;;;;13.20;2.28;;;4.80;99.90;;;;;;5052571;28;20444;-77
2022/01/07 08:06:30;;;;;;;9.70;1.90;;;5.00;99.90;;;;;;5053942;28;20075;-77
2022/01/07 08:08:56;;;;;;;14.93;2.25;;;5.00;99.90;;;;;;5045554;28;20074;-78
2022/01/07 08:11:24;;;;;;;10.27;2.40;;;5.00;99.90;;;;;;5047694;28;20048;-77
2022/01/07 08:16:34;;;;;;;10.55;2.28;;;5.10;99.90;;;;;;5069961;28;20064;-77
2022/01/07 08:19:00;;;;;;;10.43;2.22;;;5.20;99.90;;;;;;5043530;28;20499;-77
2022/01/07 08:21:29;;;;;;;11.02;2.10;;;5.10;99.90;;;;;;5036211;28;20055;-77
2022/01/07 08:23:56;;;;;;;12.18;2.70;;;5.50;99.90;;;;;;5059303;28;20060;-77
2022/01/07 08:26:23;;;;;;;11.45;2.28;;;5.10;99.90;;;;;;5036213;28;20127;-77
2022/01/07 08:29:00;;;;;;;13.07;2.03;;;5.10;99.90;;;;;;5052394;28;20117;-77
2022/01/07 08:36:37;;;;;;;12.77;2.50;;;5.10;99.90;;;;;;5069313;28;20052;-77
2022/01/07 08:39:09;;;;;;;10.98;2.33;;;5.10;99.90;;;;;;5069681;28;20100;-78
2022/01/07 08:41:35;;;;;;;10.65;2.45;;;5.10;99.90;;;;;;5070325;28;20121;-77
2022/01/07 08:44:02;;;;;;;12.10;2.45;;;5.10;99.90;;;;;;5062293;28;20131;-77
2022/01/07 08:46:28;;;;;;;11.68;2.25;;;5.10;99.90;;;;;;5053512;28;20044;-77
2022/01/07 08:48:54;;;;;;;9.98;2.10;;;5.20;99.90;;;;;;5045665;28;20048;-77
2022/01/07 08:51:20;;;;;;;11.20;2.20;;;5.20;99.90;;;;;;5045343;28;20099;-77
2022/01/07 08:53:46;;;;;;;6.43;1.83;;;5.20;99.90;;;;;;5069569;28;20055;-78
2022/01/07 08:56:11;;;;;;;9.35;2.25;;;5.20;99.90;;;;;;5051164;28;20051;-77
2022/01/07 08:58:37;;;;;;;11.40;2.85;;;5.20;99.90;;;;;;5053808;28;20055;-77
2022/01/07 09:01:04;;;;;;;9.35;2.03;;;5.20;99.90;;;;;;5042056;28;20044;-77
2022/01/07 09:03:30;;;;;;;9.85;2.00;;;5.80;99.90;;;;;;5049658;28;20054;-77
2022/01/07 09:05:55;;;;;;;11.93;2.35;;;5.20;99.90;;;;;;5034674;28;20501;-77
2022/01/07 09:08:22;;;;;;;8.15;1.67;;;5.20;99.90;;;;;;5035281;28;20100;-77
2022/01/07 09:10:48;;;;;;;10.63;2.70;;;5.20;99.90;;;;;;5061407;28;20516;-78
2022/01/07 09:13:15;;;;;;;8.65;2.10;;;5.10;99.90;;;;;;5052778;28;20512;-77
2022/01/07 09:15:41;;;;;;;10.82;2.50;;;5.10;99.90;;;;;;5054540;28;20143;-77
2022/01/07 09:18:10;;;;;;;11.30;2.30;;;5.20;99.90;;;;;;5069199;28;20469;-77
2022/01/07 09:20:40;;;;;;;10.88;2.17;;;5.10;99.90;;;;;;5053296;28;20085;-77
2022/01/07 09:23:07;;;;;;;8.55;2.33;;;5.20;99.90;;;;;;5050531;28;20233;-77
2022/01/07 09:25:32;;;;;;;12.15;2.28;;;5.00;99.90;;;;;;5061582;28;20090;-78
2022/01/07 09:27:58;;;;;;;15.88;2.42;;;5.00;99.90;;;;;;5044478;28;20090;-77
2022/01/07 09:30:24;;;;;;;11.38;2.53;;;5.20;99.90;;;;;;5051457;28;20043;-77
2022/01/07 09:32:50;;;;;;;17.65;2.60;;;5.20;99.90;;;;;;5052418;28;20048;-78
2022/01/07 09:35:16;;;;;;;11.93;2.50;;;6.40;99.90;;;;;;5068983;28;20051;-77
2022/01/07 09:37:42;;;;;;;17.23;2.45;;;5.40;99.90;;;;;;5036480;28;20539;-78
2022/01/07 09:40:09;;;;;;;11.02;2.58;;;5.80;99.90;;;;;;5056342;28;20048;-77
2022/01/07 09:42:35;;;;;;;14.80;2.35;;;5.50;99.90;;;;;;5054941;28;20056;-77
2022/01/07 09:45:01;;;;;;;10.05;1.95;;;5.50;99.90;;;;;;5040333;28;20047;-77
2022/01/07 09:47:27;;;;;;;9.70;2.10;;;5.60;99.90;;;;;;5073783;28;20056;-77
2022/01/07 09:49:54;;;;;;;14.80;3.22;;;5.80;99.90;;;;;;5071791;28;20079;-78
2022/01/07 09:52:19;;;;;;;10.07;2.30;;;5.80;99.90;;;;;;5055127;28;20047;-76
2022/01/07 09:54:47;;;;;;;11.23;2.28;;;5.70;99.90;;;;;;5049507;28;21108;-77
2022/01/07 09:57:13;;;;;;;11.82;2.00;;;5.70;99.90;;;;;;5064553;28;20070;-76
2022/01/07 09:59:39;;;;;;;9.57;2.63;;;6.20;99.90;;;;;;5055849;28;20103;-76
2022/01/07 10:02:07;;;;;;;11.35;1.98;;;6.40;99.90;;;;;;5071294;28;20070;-77
2022/01/07 10:04:38;;;;;;;8.55;1.90;;;6.50;99.90;;;;;;5072917;28;20048;-76
2022/01/07 10:07:16;;;;;;;11.07;2.65;;;6.70;99.90;;;;;;5039086;28;20090;-77
2022/01/07 10:09:57;;;;;;;9.75;2.40;;;6.80;99.90;;;;;;5072137;28;20075;-77
2022/01/07 10:12:24;;;;;;;8.98;1.90;;;7.10;99.90;;;;;;5054970;28;20927;-77
2022/01/07 10:15:08;;;;;;;10.23;2.17;;;7.70;99.90;;;;;;5064203;28;20486;-77
2022/01/07 10:17:34;;;;;;;9.60;2.05;;;8.10;99.90;;;;;;5072873;28;20056;-77
2022/01/07 10:20:01;;;;;;;12.27;2.00;;;8.20;99.90;;;;;;5056792;28;20574;-77
2022/01/07 10:22:26;;;;;;;10.05;2.13;;;8.10;99.90;;;;;;5054353;28;20040;-77
2022/01/07 10:24:55;;;;;;;10.27;2.05;;;7.90;99.90;;;;;;5072514;28;20043;-77
2022/01/07 10:27:22;;;;;;;13.27;2.58;;;7.70;99.90;;;;;;5071651;28;20534;-77
2022/01/07 10:29:48;;;;;;;7.15;1.52;;;8.00;99.90;;;;;;5056115;28;20047;-77
2022/01/07 10:32:31;;;;;;;9.45;1.85;;;8.20;99.90;;;;;;5055222;28;20078;-77
2022/01/07 10:35:18;;;;;;;6.30;1.40;;;8.40;99.90;;;;;;5048286;28;20048;-77
2022/01/07 10:37:46;;;;;;;;;;;8.80;99.90;;;;;;5073006;28;20048;-77
2022/01/07 10:40:23;;;;;;;3.03;1.17;;;9.40;99.90;;;;;;5071763;28;20139;-77
2022/01/07 10:42:50;;;;;;;6.85;1.55;;;9.20;99.90;;;;;;5055547;28;20056;-77
2022/01/07 10:45:17;;;;;;;6.70;1.75;;;8.60;99.90;;;;;;5055329;28;20051;-77
2022/01/07 10:47:48;;;;;;;6.72;1.40;;;7.90;99.90;;;;;;5070611;28;20084;-76
2022/01/07 10:50:24;;;;;;;5.40;1.33;;;7.30;99.90;;;;;;5054717;28;20197;-77
2022/01/07 10:52:51;;;;;;;4.68;1.20;;;6.80;99.90;;;;;;5055021;28;20136;-76
2022/01/07 10:55:20;;;;;;;5.10;1.83;;;6.50;99.90;;;;;;5071988;28;20079;-76
2022/01/07 10:57:49;;;;;;;9.70;1.70;;;6.20;99.90;;;;;;5055595;28;20133;-76
2022/01/07 11:00:18;;;;;;;6.95;1.42;;;6.00;99.90;;;;;;5070615;28;20055;-78
2022/01/07 11:02:45;;;;;;;11.13;1.92;;;5.80;99.90;;;;;;5054140;28;20059;-76
2022/01/07 11:05:11;;;;;;;11.57;2.20;;;6.20;99.90;;;;;;5070470;28;20044;-76
2022/01/07 11:07:37;;;;;;;10.45;1.83;;;5.60;99.90;;;;;;5065016;28;20266;-77
2022/01/07 11:10:07;;;;;;;6.18;1.20;;;5.50;99.90;;;;;;5070202;28;20052;-77
2022/01/07 11:12:35;;;;;;;8.82;1.50;;;5.40;99.90;;;;;;5052328;28;20105;-77
2022/01/07 11:15:05;;;;;;;5.78;1.10;;;5.40;99.90;;;;;;5065937;28;20040;-76
2022/01/07 11:17:31;;;;;;;6.75;1.45;;;5.40;99.90;;;;;;5047508;28;20082;-79
2022/01/07 11:20:01;;;;;;;4.82;1.25;;;5.40;99.90;;;;;;5071597;28;20512;-77
2022/01/07 11:22:28;;;;;;;4.90;1.10;;;5.40;99.90;;;;;;5066387;28;20574;-77
2022/01/07 11:24:59;;;;;;;5.85;1.40;;;5.40;99.90;;;;;;5062083;28;20128;-77
2022/01/07 11:27:27;;;;;;;8.75;1.60;;;5.30;99.90;;;;;;5071016;28;20040;-77
2022/01/07 11:30:11;;;;;;;3.35;1.20;;;6.30;99.90;;;;;;5070222;28;20055;-78
2022/01/07 11:32:40;;;;;;;5.88;1.48;;;5.30;99.90;;;;;;5063662;28;20052;-77
2022/01/07 11:35:20;;;;;;;9.40;1.38;;;5.40;99.90;;;;;;5067912;28;20044;-78
2022/01/07 11:37:50;;;;;;;7.90;1.50;;;5.40;99.90;;;;;;5063644;28;20779;-77
2022/01/07 11:40:31;;;;;;;8.50;1.25;;;5.50;99.90;;;;;;5068661;28;20051;-78
2022/01/07 11:43:04;;;;;;;2.20;1.10;;;5.60;99.90;;;;;;5052876;28;20063;-78
2022/01/07 11:45:37;;;;;;;5.63;1.52;;;5.60;99.90;;;;;;5062105;28;20042;-77
2022/01/07 11:48:11;;;;;;;4.82;1.27;;;5.70;99.90;;;;;;5066191;28;20044;-78
2022/01/07 11:50:55;;;;;;;5.03;1.70;;;5.80;99.90;;;;;;5054005;28;20043;-77
2022/01/07 11:53:41;;;;;;;10.05;1.40;;;5.80;99.90;;;;;;5048272;28;20127;-78
2022/01/07 11:56:09;;;;;;;4.80;1.47;;;5.80;99.90;;;;;;5067181;28;20101;-78
2022/01/07 11:58:56;;;;;;;8.77;1.83;;;5.90;99.90;;;;;;5085820;28;20390;-77
2022/01/07 12:01:23;;;;;;;6.70;2.28;;;6.90;99.90;;;;;;5052163;28;20127;-78
2022/01/07 12:03:49;;;;;;;10.07;1.80;;;5.90;99.90;;;;;;5050556;28;20079;-77
2022/01/07 12:06:23;;;;;;;8.98;1.70;;;5.80;99.90;;;;;;5058993;28;20054;-78
2022/01/07 12:09:16;;;;;;;7.20;1.73;;;5.90;99.90;;;;;;5070741;28;20056;-77
2022/01/07 12:11:51;;;;;;;10.05;1.92;;;5.90;99.90;;;;;;5069561;28;20523;-78
2022/01/07 12:14:19;;;;;;;8.57;2.03;;;5.90;99.90;;;;;;5065646;28;21473;-78
2022/01/07 12:16:49;;;;;;;10.60;1.77;;;6.00;99.90;;;;;;5061392;28;20489;-78
2022/01/07 12:19:18;;;;;;;6.10;1.50;;;6.00;99.90;;;;;;5068652;28;20048;-78
2022/01/07 12:21:45;;;;;;;8.07;1.50;;;6.00;99.90;;;;;;5052205;28;20499;-78
2022/01/07 12:24:13;;;;;;;9.15;1.40;;;6.00;99.90;;;;;;5052483;28;20059;-78
2022/01/07 12:26:40;;;;;;;7.88;1.63;;;6.00;99.90;;;;;;5045720;28;20319;-77
2022/01/07 12:29:19;;;;;;;8.63;1.60;;;6.00;99.90;;;;;;5067182;28;20044;-78
2022/01/07 12:31:49;;;;;;;10.45;1.98;;;7.30;99.90;;;;;;5060765;28;20056;-78
2022/01/07 12:34:24;;;;;;;10.07;2.30;;;6.20;99.90;;;;;;5049207;28;20054;-78
2022/01/07 12:37:01;;;;;;;9.13;2.33;;;6.00;99.90;;;;;;5049522;28;20427;-78
2022/01/07 12:39:32;;;;;;;9.85;2.17;;;6.00;99.90;;;;;;5056933;28;20052;-78
2022/01/07 12:41:58;;;;;;;11.88;2.20;;;6.00;99.90;;;;;;5042249;28;20052;-78
2022/01/07 12:44:25;;;;;;;12.80;1.88;;;6.00;99.90;;;;;;5047326;28;20108;-78
2022/01/07 12:46:55;;;;;;;11.70;2.13;;;7.00;99.90;;;;;;5062513;28;20036;-81
2022/01/07 12:49:41;;;;;;;9.20;1.92;;;6.00;99.90;;;;;;5061929;28;20044;-81
2022/01/07 12:52:17;;;;;;;7.65;2.13;;;6.00;99.90;;;;;;5048364;28;20044;-82
2022/01/07 12:54:52;;;;;;;9.65;2.25;;;6.00;99.90;;;;;;5051560;28;20807;-80
2022/01/07 12:57:28;;;;;;;7.05;2.05;;;6.00;99.90;;;;;;5060128;28;20081;-81